sensor_id;sensor_type;location;lat;lon;timestamp;temperature;humidity
18876;DHT22;9570;50.854;13.778;2023-03-13T00:00:17;8.00;99.90
18876;DHT22;9570;50.854;13.778;2023-03-13T00:02:43;8.00;99.90
18876;DHT22;9570;50.854;13.778;2023-03-13T00:05:12;8.00;99.90
18876;DHT22;9570;50.854;13.778;2023-03-13T00:07:37;8.10;99.90
18876;DHT22;9570;50.854;13.778;2023-03-13T00:10:03;8.10;99.90
18876;DHT22;9570;50.854;13.778;2023-03-13T00:12:29;8.10;99.90
18876;DHT22;9570;50.854;13.778;2023-03-13T00:14:55;8.10;99.90
18876;DHT22;9570;50.854;13.778;2023-03-13T00:17:20;8.10;99.90
18876;DHT22;9570;50.854;13.778;2023-03-13T00:19:46;8.10;99.90
18876;DHT22;9570;50.854;13.778;2023-03-13T00:22:11;8.10;99.90
18876;DHT22;9570;50.854;13.778;2023-03-13T00:24:37;8.20;99.90
18876;DHT22;9570;50.854;13.778;2023-03-13T00:27:02;8.20;99.90
18876;DHT22;9570;50.854;13.778;2023-03-13T00:29:31;8.20;99.90
18876;DHT22;9570;50.854;13.778;2023-03-13T00:31:56;8.20;99.90
18876;DHT22;9570;50.854;13.778;2023-03-13T00:34:22;8.10;99.90
18876;DHT22;9570;50.854;13.778;2023-03-13T00:36:50;8.10;99.90
18876;DHT22;9570;50.854;13.778;2023-03-13T00:39:16;8.10;99.90
18876;DHT22;9570;50.854;13.778;2023-03-13T00:41:41;8.10;99.90
18876;DHT22;9570;50.854;13.778;2023-03-13T00:44:08;8.20;99.90
18876;DHT22;9570;50.854;13.778;2023-03-13T00:46:33;8.20;99.90
18876;DHT22;9570;50.854;13.778;2023-03-13T00:48:59;8.20;99.90
18876;DHT22;9570;50.854;13.778;2023-03-13T00:51:25;8.20;99.90
18876;DHT22;9570;50.854;13.778;2023-03-13T00:53:51;8.10;99.90
18876;DHT22;9570;50.854;13.778;2023-03-13T00:56:19;8.00;99.90
18876;DHT22;9570;50.854;13.778;2023-03-13T00:58:46;8.10;99.90
18876;DHT22;9570;50.854;13.778;2023-03-13T01:01:24;8.10;99.90
18876;DHT22;9570;50.854;13.778;2023-03-13T01:03:55;8.10;99.90
18876;DHT22;9570;50.854;13.778;2023-03-13T01:06:24;8.10;99.90
18876;DHT22;9570;50.854;13.778;2023-03-13T01:08:50;8.10;99.90
18876;DHT22;9570;50.854;13.778;2023-03-13T01:11:21;8.10;99.90
18876;DHT22;9570;50.854;13.778;2023-03-13T01:13:47;8.10;99.90
18876;DHT22;9570;50.854;13.778;2023-03-13T01:16:15;8.10;99.90
18876;DHT22;9570;50.854;13.778;2023-03-13T01:18:46;8.00;99.90
18876;DHT22;9570;50.854;13.778;2023-03-13T01:21:13;8.10;99.90
18876;DHT22;9570;50.854;13.778;2023-03-13T01:23:39;8.10;99.90
18876;DHT22;9570;50.854;13.778;2023-03-13T01:26:06;8.10;99.90
18876;DHT22;9570;50.854;13.778;2023-03-13T01:28:33;8.10;99.90
18876;DHT22;9570;50.854;13.778;2023-03-13T01:31:00;8.10;99.90
18876;DHT22;9570;50.854;13.778;2023-03-13T01:33:25;8.00;99.90
18876;DHT22;9570;50.854;13.778;2023-03-13T01:35:51;8.00;99.90
18876;DHT22;9570;50.854;13.778;2023-03-13T01:38:16;8.00;99.90
18876;DHT22;9570;50.854;13.778;2023-03-13T01:40:44;8.00;99.90
18876;DHT22;9570;50.854;13.778;2023-03-13T01:43:25;8.00;99.90
18876;DHT22;9570;50.854;13.778;2023-03-13T01:48:51;8.00;99.90
18876;DHT22;9570;50.854;13.778;2023-03-13T01:51:36;8.00;99.90
18876;DHT22;9570;50.854;13.778;2023-03-13T01:54:49;7.90;99.90
18876;DHT22;9570;50.854;13.778;2023-03-13T01:57:05;8.00;99.90
18876;DHT22;9570;50.854;13.778;2023-03-13T01:59:48;8.00;99.90
18876;DHT22;9570;50.854;13.778;2023-03-13T02:02:15;8.00;99.90
18876;DHT22;9570;50.854;13.778;2023-03-13T02:04:45;8.00;99.90
18876;DHT22;9570;50.854;13.778;2023-03-13T02:07:15;8.00;99.90
18876;DHT22;9570;50.854;13.778;2023-03-13T02:09:43;8.00;99.90
18876;DHT22;9570;50.854;13.778;2023-03-13T02:12:25;8.00;99.90
18876;DHT22;9570;50.854;13.778;2023-03-13T02:14:54;8.00;99.90
18876;DHT22;9570;50.854;13.778;2023-03-13T02:17:20;7.90;99.90
18876;DHT22;9570;50.854;13.778;2023-03-13T02:19:49;7.90;99.90
18876;DHT22;9570;50.854;13.778;2023-03-13T02:22:30;7.90;99.90
18876;DHT22;9570;50.854;13.778;2023-03-13T02:27:57;7.90;99.90
18876;DHT22;9570;50.854;13.778;2023-03-13T02:30:23;7.90;99.90
18876;DHT22;9570;50.854;13.778;2023-03-13T02:32:49;7.90;99.90
18876;DHT22;9570;50.854;13.778;2023-03-13T02:35:17;7.90;99.90
18876;DHT22;9570;50.854;13.778;2023-03-13T02:37:47;7.90;99.90
18876;DHT22;9570;50.854;13.778;2023-03-13T02:40:17;7.90;99.90
18876;DHT22;9570;50.854;13.778;2023-03-13T02:42:45;7.90;99.90
18876;DHT22;9570;50.854;13.778;2023-03-13T02:45:15;7.90;99.90
18876;DHT22;9570;50.854;13.778;2023-03-13T02:47:41;7.90;99.90
18876;DHT22;9570;50.854;13.778;2023-03-13T02:50:07;7.90;99.90
18876;DHT22;9570;50.854;13.778;2023-03-13T02:52:38;7.80;99.90
18876;DHT22;9570;50.854;13.778;2023-03-13T02:55:08;7.90;99.90
18876;DHT22;9570;50.854;13.778;2023-03-13T02:57:35;7.90;99.90
18876;DHT22;9570;50.854;13.778;2023-03-13T03:00:01;7.90;99.90
18876;DHT22;9570;50.854;13.778;2023-03-13T03:02:28;8.00;99.90
18876;DHT22;9570;50.854;13.778;2023-03-13T03:04:53;8.00;99.90
18876;DHT22;9570;50.854;13.778;2023-03-13T03:07:18;8.00;99.90
18876;DHT22;9570;50.854;13.778;2023-03-13T03:09:44;8.00;99.90
18876;DHT22;9570;50.854;13.778;2023-03-13T03:12:10;8.00;99.90
18876;DHT22;9570;50.854;13.778;2023-03-13T03:14:35;8.00;99.90
18876;DHT22;9570;50.854;13.778;2023-03-13T03:17:01;8.00;99.90
18876;DHT22;9570;50.854;13.778;2023-03-13T03:19:26;8.00;99.90
18876;DHT22;9570;50.854;13.778;2023-03-13T03:21:52;8.00;99.90
18876;DHT22;9570;50.854;13.778;2023-03-13T03:24:17;8.00;99.90
18876;DHT22;9570;50.854;13.778;2023-03-13T03:26:42;8.10;99.90
18876;DHT22;9570;50.854;13.778;2023-03-13T03:29:08;8.20;99.90
18876;DHT22;9570;50.854;13.778;2023-03-13T03:31:35;8.20;99.90
18876;DHT22;9570;50.854;13.778;2023-03-13T03:34:00;8.20;99.90
18876;DHT22;9570;50.854;13.778;2023-03-13T03:36:26;8.20;99.90
18876;DHT22;9570;50.854;13.778;2023-03-13T03:38:52;8.20;99.90
18876;DHT22;9570;50.854;13.778;2023-03-13T03:41:17;8.20;99.90
18876;DHT22;9570;50.854;13.778;2023-03-13T03:43:43;8.30;99.90
18876;DHT22;9570;50.854;13.778;2023-03-13T03:46:09;8.20;99.90
18876;DHT22;9570;50.854;13.778;2023-03-13T03:48:35;8.20;99.90
18876;DHT22;9570;50.854;13.778;2023-03-13T03:51:00;8.20;99.90
18876;DHT22;9570;50.854;13.778;2023-03-13T03:53:26;8.30;99.90
18876;DHT22;9570;50.854;13.778;2023-03-13T03:55:52;8.20;99.90
18876;DHT22;9570;50.854;13.778;2023-03-13T03:58:17;8.30;99.90
18876;DHT22;9570;50.854;13.778;2023-03-13T04:00:44;8.30;99.90
18876;DHT22;9570;50.854;13.778;2023-03-13T04:03:10;8.30;99.90
18876;DHT22;9570;50.854;13.778;2023-03-13T04:05:36;8.30;99.90
18876;DHT22;9570;50.854;13.778;2023-03-13T04:08:02;8.30;99.90
18876;DHT22;9570;50.854;13.778;2023-03-13T04:10:27;8.20;99.90
18876;DHT22;9570;50.854;13.778;2023-03-13T04:12:52;8.20;99.90
18876;DHT22;9570;50.854;13.778;2023-03-13T04:15:18;8.30;99.90
18876;DHT22;9570;50.854;13.778;2023-03-13T04:17:43;8.40;99.90
18876;DHT22;9570;50.854;13.778;2023-03-13T04:20:09;8.20;99.90
18876;DHT22;9570;50.854;13.778;2023-03-13T04:22:36;8.30;99.90
18876;DHT22;9570;50.854;13.778;2023-03-13T04:25:01;8.30;99.90
18876;DHT22;9570;50.854;13.778;2023-03-13T04:27:27;8.40;99.90
18876;DHT22;9570;50.854;13.778;2023-03-13T04:29:53;8.40;99.90
18876;DHT22;9570;50.854;13.778;2023-03-13T04:32:18;8.50;99.90
18876;DHT22;9570;50.854;13.778;2023-03-13T04:34:43;8.50;99.90
18876;DHT22;9570;50.854;13.778;2023-03-13T04:37:09;8.60;99.90
18876;DHT22;9570;50.854;13.778;2023-03-13T04:39:34;8.60;99.90
18876;DHT22;9570;50.854;13.778;2023-03-13T04:42:01;8.70;99.90
18876;DHT22;9570;50.854;13.778;2023-03-13T04:44:26;8.70;99.90
18876;DHT22;9570;50.854;13.778;2023-03-13T04:46:52;8.70;99.90
18876;DHT22;9570;50.854;13.778;2023-03-13T04:49:17;8.80;99.90
18876;DHT22;9570;50.854;13.778;2023-03-13T04:51:43;8.80;99.90
18876;DHT22;9570;50.854;13.778;2023-03-13T04:54:10;8.80;99.90
18876;DHT22;9570;50.854;13.778;2023-03-13T04:56:36;8.80;99.90
18876;DHT22;9570;50.854;13.778;2023-03-13T04:59:02;8.90;99.90
18876;DHT22;9570;50.854;13.778;2023-03-13T05:01:28;8.90;99.90
18876;DHT22;9570;50.854;13.778;2023-03-13T05:03:53;8.90;99.90
18876;DHT22;9570;50.854;13.778;2023-03-13T05:06:19;8.90;99.90
18876;DHT22;9570;50.854;13.778;2023-03-13T05:08:44;8.90;99.90
18876;DHT22;9570;50.854;13.778;2023-03-13T05:11:10;8.90;99.90
18876;DHT22;9570;50.854;13.778;2023-03-13T05:13:35;8.90;99.90
18876;DHT22;9570;50.854;13.778;2023-03-13T05:16:01;8.90;99.90
18876;DHT22;9570;50.854;13.778;2023-03-13T05:18:26;8.80;99.90
18876;DHT22;9570;50.854;13.778;2023-03-13T05:20:52;8.80;99.90
18876;DHT22;9570;50.854;13.778;2023-03-13T05:23:17;8.80;99.90
18876;DHT22;9570;50.854;13.778;2023-03-13T05:25:43;8.80;99.90
18876;DHT22;9570;50.854;13.778;2023-03-13T05:28:09;8.80;99.90
18876;DHT22;9570;50.854;13.778;2023-03-13T05:30:34;8.80;99.90
18876;DHT22;9570;50.854;13.778;2023-03-13T05:33:00;8.70;99.90
18876;DHT22;9570;50.854;13.778;2023-03-13T05:35:25;8.80;99.90
18876;DHT22;9570;50.854;13.778;2023-03-13T05:37:51;8.80;99.90
18876;DHT22;9570;50.854;13.778;2023-03-13T05:40:16;8.80;99.90
18876;DHT22;9570;50.854;13.778;2023-03-13T05:42:42;8.90;99.90
18876;DHT22;9570;50.854;13.778;2023-03-13T05:45:09;8.90;99.90
18876;DHT22;9570;50.854;13.778;2023-03-13T05:47:35;9.00;99.90
18876;DHT22;9570;50.854;13.778;2023-03-13T05:50:01;9.00;99.90
18876;DHT22;9570;50.854;13.778;2023-03-13T05:52:26;8.90;99.90
18876;DHT22;9570;50.854;13.778;2023-03-13T05:54:52;8.90;99.90
18876;DHT22;9570;50.854;13.778;2023-03-13T05:57:17;8.80;99.90
18876;DHT22;9570;50.854;13.778;2023-03-13T05:59:43;8.80;99.90
18876;DHT22;9570;50.854;13.778;2023-03-13T06:02:08;8.80;99.90
18876;DHT22;9570;50.854;13.778;2023-03-13T06:04:34;8.80;99.90
18876;DHT22;9570;50.854;13.778;2023-03-13T06:07:00;8.80;99.90
18876;DHT22;9570;50.854;13.778;2023-03-13T06:09:25;8.80;99.90
18876;DHT22;9570;50.854;13.778;2023-03-13T06:11:51;8.80;99.90
18876;DHT22;9570;50.854;13.778;2023-03-13T06:14:16;8.70;99.90
18876;DHT22;9570;50.854;13.778;2023-03-13T06:16:42;8.70;99.90
18876;DHT22;9570;50.854;13.778;2023-03-13T06:19:07;8.70;99.90
18876;DHT22;9570;50.854;13.778;2023-03-13T06:21:33;8.70;99.90
18876;DHT22;9570;50.854;13.778;2023-03-13T06:23:58;8.80;99.90
18876;DHT22;9570;50.854;13.778;2023-03-13T06:26:23;8.70;99.90
18876;DHT22;9570;50.854;13.778;2023-03-13T06:28:50;8.60;99.90
18876;DHT22;9570;50.854;13.778;2023-03-13T06:31:16;8.50;99.90
18876;DHT22;9570;50.854;13.778;2023-03-13T06:33:41;8.60;99.90
18876;DHT22;9570;50.854;13.778;2023-03-13T06:36:07;8.60;99.90
18876;DHT22;9570;50.854;13.778;2023-03-13T06:38:33;8.60;99.90
18876;DHT22;9570;50.854;13.778;2023-03-13T06:40:59;8.70;99.90
18876;DHT22;9570;50.854;13.778;2023-03-13T06:43:24;8.70;99.90
18876;DHT22;9570;50.854;13.778;2023-03-13T06:45:50;8.80;99.90
18876;DHT22;9570;50.854;13.778;2023-03-13T06:48:16;8.80;99.90
18876;DHT22;9570;50.854;13.778;2023-03-13T06:50:42;8.80;99.90
18876;DHT22;9570;50.854;13.778;2023-03-13T06:53:14;8.90;99.90
18876;DHT22;9570;50.854;13.778;2023-03-13T06:55:41;8.90;99.90
18876;DHT22;9570;50.854;13.778;2023-03-13T06:58:06;8.90;99.90
18876;DHT22;9570;50.854;13.778;2023-03-13T07:00:31;8.90;99.90
18876;DHT22;9570;50.854;13.778;2023-03-13T07:02:58;8.90;99.90
18876;DHT22;9570;50.854;13.778;2023-03-13T07:05:24;8.90;99.90
18876;DHT22;9570;50.854;13.778;2023-03-13T07:07:49;8.90;99.90
18876;DHT22;9570;50.854;13.778;2023-03-13T07:10:15;8.90;99.90
18876;DHT22;9570;50.854;13.778;2023-03-13T07:12:40;9.00;99.90
18876;DHT22;9570;50.854;13.778;2023-03-13T07:15:06;9.00;99.90
18876;DHT22;9570;50.854;13.778;2023-03-13T07:17:31;9.00;99.90
18876;DHT22;9570;50.854;13.778;2023-03-13T07:19:57;9.00;99.90
18876;DHT22;9570;50.854;13.778;2023-03-13T07:22:22;9.10;99.90
18876;DHT22;9570;50.854;13.778;2023-03-13T07:24:48;9.20;99.90
18876;DHT22;9570;50.854;13.778;2023-03-13T07:27:13;9.20;99.90
18876;DHT22;9570;50.854;13.778;2023-03-13T07:29:39;9.20;99.90
18876;DHT22;9570;50.854;13.778;2023-03-13T07:32:04;9.30;99.90
18876;DHT22;9570;50.854;13.778;2023-03-13T07:34:30;9.30;99.90
18876;DHT22;9570;50.854;13.778;2023-03-13T07:36:55;9.40;99.90
18876;DHT22;9570;50.854;13.778;2023-03-13T07:39:21;9.40;99.90
18876;DHT22;9570;50.854;13.778;2023-03-13T07:41:46;9.40;99.90
18876;DHT22;9570;50.854;13.778;2023-03-13T07:44:12;9.40;99.90
18876;DHT22;9570;50.854;13.778;2023-03-13T07:46:37;9.40;99.90
18876;DHT22;9570;50.854;13.778;2023-03-13T07:49:03;9.40;99.90
18876;DHT22;9570;50.854;13.778;2023-03-13T07:51:28;9.30;99.90
18876;DHT22;9570;50.854;13.778;2023-03-13T07:53:54;9.40;99.90
18876;DHT22;9570;50.854;13.778;2023-03-13T07:56:21;9.40;99.90
18876;DHT22;9570;50.854;13.778;2023-03-13T07:58:47;9.30;99.90
18876;DHT22;9570;50.854;13.778;2023-03-13T08:01:18;9.30;99.90
18876;DHT22;9570;50.854;13.778;2023-03-13T08:03:45;9.10;99.90
18876;DHT22;9570;50.854;13.778;2023-03-13T08:06:14;9.10;99.90
18876;DHT22;9570;50.854;13.778;2023-03-13T08:08:41;9.10;99.90
18876;DHT22;9570;50.854;13.778;2023-03-13T08:11:15;9.10;99.90
18876;DHT22;9570;50.854;13.778;2023-03-13T08:13:42;9.10;99.90
18876;DHT22;9570;50.854;13.778;2023-03-13T08:16:13;9.10;99.90
18876;DHT22;9570;50.854;13.778;2023-03-13T08:18:42;9.20;99.90
18876;DHT22;9570;50.854;13.778;2023-03-13T08:21:10;9.10;99.90
18876;DHT22;9570;50.854;13.778;2023-03-13T08:23:36;9.10;99.90
18876;DHT22;9570;50.854;13.778;2023-03-13T08:26:09;9.20;99.90
18876;DHT22;9570;50.854;13.778;2023-03-13T08:28:36;9.30;99.90
18876;DHT22;9570;50.854;13.778;2023-03-13T08:31:19;9.30;99.90
18876;DHT22;9570;50.854;13.778;2023-03-13T08:33:46;9.40;99.90
18876;DHT22;9570;50.854;13.778;2023-03-13T08:36:23;9.40;99.90
18876;DHT22;9570;50.854;13.778;2023-03-13T08:38:50;9.50;99.90
18876;DHT22;9570;50.854;13.778;2023-03-13T08:41:18;9.50;99.90
18876;DHT22;9570;50.854;13.778;2023-03-13T08:43:45;9.60;99.90
18876;DHT22;9570;50.854;13.778;2023-03-13T08:46:11;9.60;99.90
18876;DHT22;9570;50.854;13.778;2023-03-13T08:48:36;9.80;99.90
18876;DHT22;9570;50.854;13.778;2023-03-13T08:51:13;9.80;99.90
18876;DHT22;9570;50.854;13.778;2023-03-13T08:53:40;10.00;99.90
18876;DHT22;9570;50.854;13.778;2023-03-13T08:56:08;10.10;99.90
18876;DHT22;9570;50.854;13.778;2023-03-13T08:58:34;10.20;99.90
18876;DHT22;9570;50.854;13.778;2023-03-13T09:01:04;10.20;99.90
18876;DHT22;9570;50.854;13.778;2023-03-13T09:03:31;10.30;99.90
18876;DHT22;9570;50.854;13.778;2023-03-13T09:05:58;10.30;99.90
18876;DHT22;9570;50.854;13.778;2023-03-13T09:08:24;10.20;99.90
18876;DHT22;9570;50.854;13.778;2023-03-13T09:11:01;10.20;99.90
18876;DHT22;9570;50.854;13.778;2023-03-13T09:13:28;10.10;99.90
18876;DHT22;9570;50.854;13.778;2023-03-13T09:15:55;10.10;99.90
18876;DHT22;9570;50.854;13.778;2023-03-13T09:18:21;10.10;99.90
18876;DHT22;9570;50.854;13.778;2023-03-13T09:20:47;10.10;99.90
18876;DHT22;9570;50.854;13.778;2023-03-13T09:23:12;10.10;99.90
18876;DHT22;9570;50.854;13.778;2023-03-13T09:25:38;10.20;99.90
18876;DHT22;9570;50.854;13.778;2023-03-13T09:28:03;10.20;99.90
18876;DHT22;9570;50.854;13.778;2023-03-13T09:30:29;10.20;99.90
18876;DHT22;9570;50.854;13.778;2023-03-13T09:32:54;10.20;99.90
18876;DHT22;9570;50.854;13.778;2023-03-13T09:35:20;10.20;99.90
18876;DHT22;9570;50.854;13.778;2023-03-13T09:37:45;10.30;99.90
18876;DHT22;9570;50.854;13.778;2023-03-13T09:40:16;10.30;99.90
18876;DHT22;9570;50.854;13.778;2023-03-13T09:42:52;10.30;99.90
18876;DHT22;9570;50.854;13.778;2023-03-13T09:45:33;10.20;99.90
18876;DHT22;9570;50.854;13.778;2023-03-13T09:48:11;10.20;99.90
18876;DHT22;9570;50.854;13.778;2023-03-13T09:50:50;10.30;99.90
18876;DHT22;9570;50.854;13.778;2023-03-13T09:56:03;10.50;99.90
18876;DHT22;9570;50.854;13.778;2023-03-13T09:58:29;10.50;99.90
18876;DHT22;9570;50.854;13.778;2023-03-13T10:01:05;10.70;99.90
18876;DHT22;9570;50.854;13.778;2023-03-13T10:06:05;11.20;99.90
18876;DHT22;9570;50.854;13.778;2023-03-13T10:08:36;11.40;99.90
18876;DHT22;9570;50.854;13.778;2023-03-13T10:11:10;11.60;99.90
18876;DHT22;9570;50.854;13.778;2023-03-13T10:14:02;11.80;99.90
18876;DHT22;9570;50.854;13.778;2023-03-13T10:16:46;11.80;99.90
18876;DHT22;9570;50.854;13.778;2023-03-13T10:19:16;11.80;99.90
18876;DHT22;9570;50.854;13.778;2023-03-13T10:21:44;11.70;99.90
18876;DHT22;9570;50.854;13.778;2023-03-13T10:27:16;11.60;99.90
18876;DHT22;9570;50.854;13.778;2023-03-13T10:29:42;11.60;99.90
18876;DHT22;9570;50.854;13.778;2023-03-13T10:32:12;11.50;99.90
18876;DHT22;9570;50.854;13.778;2023-03-13T10:34:57;11.40;99.90
18876;DHT22;9570;50.854;13.778;2023-03-13T10:37:40;11.50;99.90
18876;DHT22;9570;50.854;13.778;2023-03-13T10:40:21;11.40;99.90
18876;DHT22;9570;50.854;13.778;2023-03-13T10:43:00;11.60;99.90
18876;DHT22;9570;50.854;13.778;2023-03-13T10:45:26;11.80;99.90
18876;DHT22;9570;50.854;13.778;2023-03-13T10:47:59;11.90;99.90
18876;DHT22;9570;50.854;13.778;2023-03-13T10:50:27;12.10;99.90
18876;DHT22;9570;50.854;13.778;2023-03-13T10:52:56;12.10;99.90
18876;DHT22;9570;50.854;13.778;2023-03-13T10:55:24;12.20;99.90
18876;DHT22;9570;50.854;13.778;2023-03-13T10:58:14;12.30;99.90
18876;DHT22;9570;50.854;13.778;2023-03-13T11:00:41;12.40;99.90
18876;DHT22;9570;50.854;13.778;2023-03-13T11:03:22;12.40;99.90
18876;DHT22;9570;50.854;13.778;2023-03-13T11:06:00;12.40;99.90
18876;DHT22;9570;50.854;13.778;2023-03-13T11:08:28;12.40;99.90
18876;DHT22;9570;50.854;13.778;2023-03-13T11:11:00;12.40;99.90
18876;DHT22;9570;50.854;13.778;2023-03-13T11:13:35;12.30;99.90
18876;DHT22;9570;50.854;13.778;2023-03-13T11:16:20;12.30;99.90
18876;DHT22;9570;50.854;13.778;2023-03-13T11:19:07;12.30;99.90
18876;DHT22;9570;50.854;13.778;2023-03-13T11:21:51;12.20;99.90
18876;DHT22;9570;50.854;13.778;2023-03-13T11:27:18;12.30;99.90
18876;DHT22;9570;50.854;13.778;2023-03-13T11:30:02;12.40;99.90
18876;DHT22;9570;50.854;13.778;2023-03-13T11:32:47;12.40;99.90
18876;DHT22;9570;50.854;13.778;2023-03-13T11:35:43;12.40;99.90
18876;DHT22;9570;50.854;13.778;2023-03-13T11:38:18;12.30;99.90
18876;DHT22;9570;50.854;13.778;2023-03-13T11:44:04;12.40;99.90
18876;DHT22;9570;50.854;13.778;2023-03-13T11:46:44;12.50;99.90
18876;DHT22;9570;50.854;13.778;2023-03-13T11:49:31;12.40;99.90
18876;DHT22;9570;50.854;13.778;2023-03-13T11:52:17;12.30;99.90
18876;DHT22;9570;50.854;13.778;2023-03-13T11:54:53;12.30;99.90
18876;DHT22;9570;50.854;13.778;2023-03-13T12:00:34;12.40;99.90
18876;DHT22;9570;50.854;13.778;2023-03-13T12:03:10;12.40;99.90
18876;DHT22;9570;50.854;13.778;2023-03-13T12:05:54;12.40;99.90
18876;DHT22;9570;50.854;13.778;2023-03-13T12:11:25;12.50;99.90
18876;DHT22;9570;50.854;13.778;2023-03-13T12:14:04;12.40;99.90
18876;DHT22;9570;50.854;13.778;2023-03-13T12:16:43;12.40;99.90
18876;DHT22;9570;50.854;13.778;2023-03-13T12:19:14;12.50;99.90
18876;DHT22;9570;50.854;13.778;2023-03-13T12:21:47;12.60;99.90
18876;DHT22;9570;50.854;13.778;2023-03-13T12:27:32;12.70;99.90
18876;DHT22;9570;50.854;13.778;2023-03-13T12:35:43;13.10;99.90
18876;DHT22;9570;50.854;13.778;2023-03-13T12:38:23;13.30;99.90
18876;DHT22;9570;50.854;13.778;2023-03-13T12:41:08;13.40;99.90
18876;DHT22;9570;50.854;13.778;2023-03-13T12:43:38;13.40;99.90
18876;DHT22;9570;50.854;13.778;2023-03-13T12:48:49;13.50;99.90
18876;DHT22;9570;50.854;13.778;2023-03-13T12:51:28;13.60;99.90
18876;DHT22;9570;50.854;13.778;2023-03-13T12:57:11;13.50;99.90
18876;DHT22;9570;50.854;13.778;2023-03-13T12:59:41;13.60;99.90
18876;DHT22;9570;50.854;13.778;2023-03-13T13:02:20;13.60;99.90
18876;DHT22;9570;50.854;13.778;2023-03-13T13:04:48;13.70;99.90
18876;DHT22;9570;50.854;13.778;2023-03-13T13:07:29;13.80;99.90
18876;DHT22;9570;50.854;13.778;2023-03-13T13:12:33;14.00;99.90
18876;DHT22;9570;50.854;13.778;2023-03-13T13:15:02;14.10;99.90
18876;DHT22;9570;50.854;13.778;2023-03-13T13:20:30;14.30;99.90
18876;DHT22;9570;50.854;13.778;2023-03-13T13:23:03;14.50;99.90
18876;DHT22;9570;50.854;13.778;2023-03-13T13:25:42;14.60;99.90
18876;DHT22;9570;50.854;13.778;2023-03-13T13:28:25;14.70;99.90
18876;DHT22;9570;50.854;13.778;2023-03-13T13:30:53;14.80;99.90
18876;DHT22;9570;50.854;13.778;2023-03-13T13:38:46;15.30;99.90
18876;DHT22;9570;50.854;13.778;2023-03-13T13:43:48;15.30;99.90
18876;DHT22;9570;50.854;13.778;2023-03-13T13:46:32;15.10;99.90
18876;DHT22;9570;50.854;13.778;2023-03-13T13:51:29;14.90;99.90
18876;DHT22;9570;50.854;13.778;2023-03-13T13:53:59;14.90;99.90
18876;DHT22;9570;50.854;13.778;2023-03-13T13:56:31;14.80;99.90
18876;DHT22;9570;50.854;13.778;2023-03-13T13:59:13;15.00;99.90
18876;DHT22;9570;50.854;13.778;2023-03-13T14:01:41;15.10;99.90
18876;DHT22;9570;50.854;13.778;2023-03-13T14:04:27;15.20;99.90
18876;DHT22;9570;50.854;13.778;2023-03-13T14:06:56;15.30;99.90
18876;DHT22;9570;50.854;13.778;2023-03-13T14:09:49;15.30;99.90
18876;DHT22;9570;50.854;13.778;2023-03-13T14:15:07;15.50;99.90
18876;DHT22;9570;50.854;13.778;2023-03-13T14:17:45;15.50;99.90
18876;DHT22;9570;50.854;13.778;2023-03-13T14:20:27;15.50;99.90
18876;DHT22;9570;50.854;13.778;2023-03-13T14:22:56;15.60;99.90
18876;DHT22;9570;50.854;13.778;2023-03-13T14:25:23;15.60;99.90
18876;DHT22;9570;50.854;13.778;2023-03-13T14:27:51;15.50;99.90
18876;DHT22;9570;50.854;13.778;2023-03-13T14:30:18;15.60;99.90
18876;DHT22;9570;50.854;13.778;2023-03-13T14:32:44;15.60;99.90
18876;DHT22;9570;50.854;13.778;2023-03-13T14:35:13;15.60;99.90
18876;DHT22;9570;50.854;13.778;2023-03-13T14:37:50;15.50;99.90
18876;DHT22;9570;50.854;13.778;2023-03-13T14:40:24;15.50;99.90
18876;DHT22;9570;50.854;13.778;2023-03-13T14:43:00;15.40;99.90
18876;DHT22;9570;50.854;13.778;2023-03-13T14:47:54;15.30;99.90
18876;DHT22;9570;50.854;13.778;2023-03-13T14:50:24;15.30;99.90
18876;DHT22;9570;50.854;13.778;2023-03-13T14:52:56;15.30;99.90
18876;DHT22;9570;50.854;13.778;2023-03-13T14:58:28;15.20;99.90
18876;DHT22;9570;50.854;13.778;2023-03-13T15:00:54;15.20;99.90
18876;DHT22;9570;50.854;13.778;2023-03-13T15:03:23;15.30;99.90
18876;DHT22;9570;50.854;13.778;2023-03-13T15:06:04;15.30;99.90
18876;DHT22;9570;50.854;13.778;2023-03-13T15:08:32;15.30;99.90
18876;DHT22;9570;50.854;13.778;2023-03-13T15:10:58;15.30;99.90
18876;DHT22;9570;50.854;13.778;2023-03-13T15:13:33;15.10;99.90
18876;DHT22;9570;50.854;13.778;2023-03-13T15:16:00;15.00;99.90
18876;DHT22;9570;50.854;13.778;2023-03-13T15:18:32;15.10;99.90
18876;DHT22;9570;50.854;13.778;2023-03-13T15:23:40;15.00;99.90
18876;DHT22;9570;50.854;13.778;2023-03-13T15:26:06;14.90;99.90
18876;DHT22;9570;50.854;13.778;2023-03-13T15:28:32;14.80;99.90
18876;DHT22;9570;50.854;13.778;2023-03-13T15:30:57;14.80;99.90
18876;DHT22;9570;50.854;13.778;2023-03-13T15:33:26;14.80;99.90
18876;DHT22;9570;50.854;13.778;2023-03-13T15:35:53;14.70;99.90
18876;DHT22;9570;50.854;13.778;2023-03-13T15:38:22;14.80;99.90
18876;DHT22;9570;50.854;13.778;2023-03-13T15:40:48;14.80;99.90
18876;DHT22;9570;50.854;13.778;2023-03-13T15:43:14;14.90;99.90
18876;DHT22;9570;50.854;13.778;2023-03-13T15:45:42;14.70;99.90
18876;DHT22;9570;50.854;13.778;2023-03-13T15:48:15;14.70;99.90
18876;DHT22;9570;50.854;13.778;2023-03-13T15:50:42;14.70;99.90
18876;DHT22;9570;50.854;13.778;2023-03-13T15:53:17;14.70;99.90
18876;DHT22;9570;50.854;13.778;2023-03-13T15:55:44;14.70;99.90
18876;DHT22;9570;50.854;13.778;2023-03-13T15:58:10;14.60;99.90
18876;DHT22;9570;50.854;13.778;2023-03-13T16:00:36;14.60;99.90
18876;DHT22;9570;50.854;13.778;2023-03-13T16:03:01;14.50;99.90
18876;DHT22;9570;50.854;13.778;2023-03-13T16:05:27;14.50;99.90
18876;DHT22;9570;50.854;13.778;2023-03-13T16:07:53;14.60;99.90
18876;DHT22;9570;50.854;13.778;2023-03-13T16:10:25;14.60;99.90
18876;DHT22;9570;50.854;13.778;2023-03-13T16:12:51;14.50;99.90
18876;DHT22;9570;50.854;13.778;2023-03-13T16:15:17;14.50;99.90
18876;DHT22;9570;50.854;13.778;2023-03-13T16:17:42;14.50;99.90
18876;DHT22;9570;50.854;13.778;2023-03-13T16:20:15;14.50;99.90
18876;DHT22;9570;50.854;13.778;2023-03-13T16:22:41;14.60;99.90
18876;DHT22;9570;50.854;13.778;2023-03-13T16:25:07;14.50;99.90
18876;DHT22;9570;50.854;13.778;2023-03-13T16:27:33;14.50;99.90
18876;DHT22;9570;50.854;13.778;2023-03-13T16:29:58;14.50;99.90
18876;DHT22;9570;50.854;13.778;2023-03-13T16:32:26;14.50;99.90
18876;DHT22;9570;50.854;13.778;2023-03-13T16:34:51;14.50;99.90
18876;DHT22;9570;50.854;13.778;2023-03-13T16:37:19;14.60;99.90
18876;DHT22;9570;50.854;13.778;2023-03-13T16:39:45;14.50;99.90
18876;DHT22;9570;50.854;13.778;2023-03-13T16:42:11;14.40;99.90
18876;DHT22;9570;50.854;13.778;2023-03-13T16:44:37;14.40;99.90
18876;DHT22;9570;50.854;13.778;2023-03-13T16:47:14;14.40;99.90
18876;DHT22;9570;50.854;13.778;2023-03-13T16:49:41;14.40;99.90
18876;DHT22;9570;50.854;13.778;2023-03-13T16:52:12;14.40;99.90
18876;DHT22;9570;50.854;13.778;2023-03-13T16:54:38;14.30;99.90
18876;DHT22;9570;50.854;13.778;2023-03-13T16:57:09;14.20;99.90
18876;DHT22;9570;50.854;13.778;2023-03-13T16:59:35;14.20;99.90